Time;durP1;ratioP1;P1;durP2;ratioP2;P2;SDS_P1;SDS_P2;PMS_P1;PMS_P2;Temp;Humidity;BMP_temperature;BMP_pressure;BME280_temperature;BME280_humidity;BME280_pressure;Samples;Min_cycle;Max_cycle;Signal;HPM_P1;HPM_P2
2023/10/28 00:00:46;;;;;;;7.25;2.75;;;;;;;11.10;nan;99430.44;5014545;28;20510;-73
2023/10/28 00:03:12;;;;;;;8.02;2.80;;;;;;;10.68;nan;99378.50;5016634;28;20021;-72
2023/10/28 00:05:38;;;;;;;6.72;2.42;;;;;;;10.76;nan;99403.56;5032744;28;20057;-73
2023/10/28 00:08:04;;;;;;;5.05;2.35;;;;;;;11.01;nan;99430.13;5016950;28;20302;-73
2023/10/28 00:10:31;;;;;;;5.30;2.88;;;;;;;10.83;nan;99404.16;5024127;28;20032;-72
2023/10/28 00:12:57;;;;;;;3.67;2.10;;;;;;;11.10;nan;99446.25;5016396;28;20487;-73
2023/10/28 00:15:24;;;;;;;3.35;2.28;;;;;;;10.92;nan;99425.56;5017394;28;20034;-73
2023/10/28 00:17:50;;;;;;;4.10;2.20;;;;;;;11.22;nan;99467.16;5019527;28;20039;-73
2023/10/28 00:20:19;;;;;;;2.83;2.10;;;;;;;11.21;nan;99461.13;5016026;28;20049;-72
2023/10/28 00:22:45;;;;;;;4.55;2.45;;;;;;;11.21;nan;99466.38;5015682;28;20080;-73
2023/10/28 00:25:15;;;;;;;4.20;1.95;;;;;;;11.18;nan;99469.53;5023643;28;20038;-73
2023/10/28 00:27:40;;;;;;;;;;;;;;;11.19;nan;99467.69;5025627;28;20029;-72
2023/10/28 00:30:07;;;;;;;4.80;2.33;;;;;;;11.18;nan;99468.72;5017851;28;19920;-73
2023/10/28 00:32:33;;;;;;;7.43;1.92;;;;;;;11.16;nan;99465.56;5018132;28;20468;-68
2023/10/28 00:34:59;;;;;;;4.70;2.13;;;;;;;11.14;nan;99462.38;5014685;28;20541;-68
2023/10/28 00:37:25;;;;;;;6.18;2.22;;;;;;;11.15;nan;99475.28;5016959;28;20029;-68
2023/10/28 00:39:50;;;;;;;5.35;2.20;;;;;;;11.05;nan;99472.56;5016071;28;20028;-67
2023/10/28 00:42:17;;;;;;;3.13;2.08;;;;;;;11.08;nan;99479.97;5013156;28;20021;-67
2023/10/28 00:44:43;;;;;;;4.53;2.28;;;;;;;11.03;nan;99479.91;5016447;28;20095;-72
2023/10/28 00:47:09;;;;;;;4.90;2.28;;;;;;;11.07;nan;99494.97;5022721;28;20037;-71
2023/10/28 00:49:35;;;;;;;4.20;2.30;;;;;;;11.10;nan;99506.84;5015334;28;20026;-71
2023/10/28 00:52:02;;;;;;;4.25;2.17;;;;;;;11.13;nan;99502.94;5014582;28;20021;-71
2023/10/28 00:54:28;;;;;;;7.07;2.20;;;;;;;10.85;nan;99458.16;5013969;28;20030;-71
2023/10/28 00:56:54;;;;;;;4.15;2.38;;;;;;;11.12;nan;99499.50;5013720;28;20034;-72
2023/10/28 00:59:20;;;;;;;2.70;2.17;;;;;;;10.86;nan;99467.66;5023238;28;20033;-71
2023/10/28 01:01:46;;;;;;;4.63;2.10;;;;;;;10.83;nan;99462.09;5015226;28;20032;-71
2023/10/28 01:04:11;;;;;;;5.90;2.25;;;;;;;10.50;nan;99426.22;5004938;28;20104;-71
2023/10/28 01:06:38;;;;;;;4.80;2.40;;;;;;;11.05;nan;99493.66;5018321;28;20053;-71
2023/10/28 01:09:03;;;;;;;4.20;2.17;;;;;;;10.32;nan;99385.25;5013764;28;20029;-72
2023/10/28 01:11:29;;;;;;;4.40;2.28;;;;;;;10.81;nan;99453.66;5020138;28;20022;-71
2023/10/28 01:13:54;;;;;;;3.70;2.33;;;;;;;10.80;nan;99466.03;5016919;28;20034;-72
2023/10/28 01:16:22;;;;;;;5.53;3.33;;;;;;;11.04;nan;99506.03;5012920;28;20208;-72
2023/10/28 01:18:54;;;;;;;3.30;2.13;;;;;;;11.07;nan;99521.31;5017098;28;20061;-72
2023/10/28 01:21:21;;;;;;;5.65;3.00;;;;;;;11.00;nan;99509.41;5015072;28;20034;-72
2023/10/28 01:23:46;;;;;;;5.60;2.20;;;;;;;10.90;nan;99506.69;5014469;28;20029;-72
2023/10/28 01:26:12;;;;;;;2.38;1.67;;;;;;;10.84;nan;99490.81;5017166;28;20768;-70
2023/10/28 01:28:37;;;;;;;4.18;2.50;;;;;;;10.90;nan;99502.19;5016299;28;20026;-70
2023/10/28 01:31:03;;;;;;;5.38;2.40;;;;;;;10.82;nan;99487.66;5016181;28;20034;-70
2023/10/28 01:33:29;;;;;;;2.60;1.80;;;;;;;10.50;nan;99442.81;5012831;28;20484;-70
2023/10/28 01:35:54;;;;;;;3.67;2.00;;;;;;;10.82;nan;99500.81;5015533;28;20587;-70
2023/10/28 01:38:23;;;;;;;5.47;2.15;;;;;;;10.82;nan;99503.44;5014126;28;20018;-70
2023/10/28 01:40:49;;;;;;;5.63;2.15;;;;;;;10.80;nan;99502.91;5015144;28;20056;-70
2023/10/28 01:43:16;;;;;;;3.95;1.98;;;;;;;10.87;nan;99518.50;5013022;28;20033;-70
2023/10/28 01:45:41;;;;;;;3.78;1.80;;;;;;;10.85;nan;99513.47;5014356;28;20087;-70
2023/10/28 01:48:07;;;;;;;6.15;2.30;;;;;;;10.84;nan;99518.97;5015961;28;20046;-70
2023/10/28 01:50:32;;;;;;;3.30;2.17;;;;;;;10.74;nan;99497.81;5014589;28;20083;-71
2023/10/28 01:52:57;;;;;;;3.25;1.98;;;;;;;10.64;nan;99487.97;5015165;28;20025;-70
2023/10/28 01:55:23;;;;;;;4.88;2.42;;;;;;;10.76;nan;99506.28;5013700;28;20022;-71
2023/10/28 01:57:48;;;;;;;3.75;2.63;;;;;;;10.71;nan;99501.75;5012986;28;20514;-69
2023/10/28 02:00:15;;;;;;;5.40;2.65;;;;;;;10.73;nan;99502.31;5014059;28;20113;-70
2023/10/28 02:02:41;;;;;;;5.75;2.83;;;;;;;10.69;nan;99492.50;5014832;28;20032;-70
2023/10/28 02:05:08;;;;;;;8.25;2.80;;;;;;;10.76;nan;99493.09;5014912;28;20022;-70
2023/10/28 02:07:34;;;;;;;3.92;2.90;;;;;;;10.78;nan;99485.75;5016821;28;20017;-70
2023/10/28 02:10:00;;;;;;;4.28;3.03;;;;;;;10.73;nan;99475.97;5014372;28;20075;-70
2023/10/28 02:12:25;;;;;;;5.75;2.90;;;;;;;10.84;nan;99495.28;5013603;28;20025;-70
2023/10/28 02:14:51;;;;;;;5.22;2.97;;;;;;;10.75;nan;99473.06;5016314;28;20029;-71
2023/10/28 02:17:17;;;;;;;5.10;2.53;;;;;;;10.67;nan;99457.72;5017087;28;20053;-70
2023/10/28 02:19:43;;;;;;;7.88;2.60;;;;;;;10.86;nan;99490.56;5012408;28;20387;-69
2023/10/28 02:22:10;;;;;;;4.05;2.55;;;;;;;10.88;nan;99487.69;5011957;28;20021;-69
2023/10/28 02:24:36;;;;;;;4.88;2.47;;;;;;;10.82;nan;99474.47;5015085;28;20025;-68
2023/10/28 02:27:02;;;;;;;4.65;2.20;;;;;;;10.78;nan;99468.13;5015450;28;20044;-70
2023/10/28 02:29:27;;;;;;;3.50;2.70;;;;;;;10.80;nan;99471.28;5016670;28;20071;-70
2023/10/28 02:31:52;;;;;;;7.13;3.00;;;;;;;10.70;nan;99476.44;5014733;28;20475;-70
2023/10/28 02:34:18;;;;;;;3.95;2.70;;;;;;;10.74;nan;99482.03;5015256;28;20408;-70
2023/10/28 02:36:43;;;;;;;3.47;2.75;;;;;;;10.60;nan;99468.44;5012729;28;20149;-69
2023/10/28 02:39:11;;;;;;;4.80;2.28;;;;;;;10.66;nan;99488.53;5013107;28;20309;-70
2023/10/28 02:41:38;;;;;;;3.35;2.20;;;;;;;10.59;nan;99482.66;5015071;28;20511;-70
2023/10/28 02:44:04;;;;;;;2.97;2.17;;;;;;;10.64;nan;99498.50;5013148;28;20588;-69
2023/10/28 02:46:30;;;;;;;6.10;2.20;;;;;;;10.65;nan;99508.00;5020911;28;20018;-69
2023/10/28 02:48:55;;;;;;;3.00;2.33;;;;;;;10.62;nan;99509.28;5017025;28;20025;-70
2023/10/28 02:51:21;;;;;;;3.67;2.20;;;;;;;10.60;nan;99505.31;5018534;28;20446;-69
2023/10/28 02:53:46;;;;;;;2.90;2.40;;;;;;;10.55;nan;99502.63;5021794;28;20038;-69
2023/10/28 02:56:12;;;;;;;3.95;2.88;;;;;;;10.55;nan;99507.88;5020478;28;20022;-69
2023/10/28 02:58:39;;;;;;;3.88;2.55;;;;;;;10.42;nan;99501.97;5016177;28;20022;-69
2023/10/28 03:01:12;;;;;;;4.35;2.75;;;;;;;10.46;nan;99507.50;5015693;28;20088;-69
2023/10/28 03:03:38;;;;;;;4.55;2.67;;;;;;;10.53;nan;99526.53;5016988;28;20479;-70
2023/10/28 03:06:04;;;;;;;4.57;2.40;;;;;;;10.51;nan;99525.19;5019349;28;20682;-70
2023/10/28 03:08:29;;;;;;;3.05;2.25;;;;;;;10.52;nan;99534.72;5019110;28;20033;-69
2023/10/28 03:10:55;;;;;;;4.38;2.55;;;;;;;10.46;nan;99517.25;5016223;28;20517;-69
2023/10/28 03:13:21;;;;;;;4.63;2.78;;;;;;;10.49;nan;99512.31;5016494;28;20021;-70
2023/10/28 03:15:46;;;;;;;7.22;2.78;;;;;;;10.49;nan;99511.53;5019527;28;20558;-70
2023/10/28 03:18:15;;;;;;;3.50;2.63;;;;;;;10.53;nan;99508.13;5020910;28;20036;-70
2023/10/28 03:20:41;;;;;;;4.28;2.92;;;;;;;10.37;nan;99477.44;5018647;28;20122;-70
2023/10/28 03:23:06;;;;;;;4.82;3.05;;;;;;;10.48;nan;99488.84;5016580;28;20057;-69
2023/10/28 03:25:32;;;;;;;7.32;3.80;;;;;;;10.51;nan;99501.50;5014216;28;20064;-69
2023/10/28 03:28:00;;;;;;;9.43;3.95;;;;;;;10.46;nan;99488.31;5015686;28;20185;-69
2023/10/28 03:30:26;;;;;;;6.78;4.00;;;;;;;10.42;nan;99478.28;5018498;28;20052;-68
2023/10/28 03:32:51;;;;;;;5.10;3.65;;;;;;;10.47;nan;99492.53;5018190;28;20026;-67
2023/10/28 03:35:17;;;;;;;6.07;3.47;;;;;;;10.47;nan;99506.50;5017727;28;20188;-68
2023/10/28 03:37:44;;;;;;;6.15;3.45;;;;;;;10.58;nan;99525.81;5016481;28;20037;-67
2023/10/28 03:40:10;;;;;;;6.70;3.70;;;;;;;10.55;nan;99528.94;5018700;28;20026;-67
2023/10/28 03:42:36;;;;;;;6.95;3.30;;;;;;;10.56;nan;99533.97;5018567;28;20460;-68
2023/10/28 03:45:02;;;;;;;6.05;3.90;;;;;;;10.63;nan;99542.47;5016422;28;20024;-67
2023/10/28 03:47:29;;;;;;;5.32;3.90;;;;;;;10.61;nan;99528.75;5021334;28;20076;-67
2023/10/28 03:49:55;;;;;;;6.18;3.95;;;;;;;10.61;nan;99538.50;5017486;28;20064;-69
2023/10/28 03:52:20;;;;;;;6.72;4.03;;;;;;;10.62;nan;99542.72;5017280;28;20458;-69
2023/10/28 03:54:46;;;;;;;5.22;3.75;;;;;;;10.66;nan;99557.00;5025449;28;20034;-70
2023/10/28 03:57:11;;;;;;;12.85;3.88;;;;;;;10.68;nan;99570.72;5022893;28;20060;-72
2023/10/28 03:59:36;;;;;;;10.25;5.20;;;;;;;10.58;nan;99574.00;5018563;28;20025;-70
2023/10/28 04:02:03;;;;;;;10.63;6.40;;;;;;;10.60;nan;99577.19;5018616;28;20104;-70
2023/10/28 04:04:29;;;;;;;9.73;5.40;;;;;;;10.60;nan;99586.91;5017671;28;20443;-71
2023/10/28 04:06:55;;;;;;;11.35;5.13;;;;;;;10.51;nan;99573.41;5013191;28;20026;-72
2023/10/28 04:09:22;;;;;;;10.00;4.78;;;;;;;10.57;nan;99571.63;5014849;28;20125;-71
2023/10/28 04:11:47;;;;;;;8.13;4.80;;;;;;;10.51;nan;99564.69;5014960;28;20051;-71
2023/10/28 04:14:13;;;;;;;7.18;4.45;;;;;;;10.57;nan;99574.25;5016698;28;20030;-71
2023/10/28 04:16:39;;;;;;;10.85;4.95;;;;;;;10.64;nan;99580.13;5018576;28;20112;-71
2023/10/28 04:19:04;;;;;;;8.18;3.92;;;;;;;10.60;nan;99579.03;5017991;28;20549;-70
2023/10/28 04:21:30;;;;;;;5.15;3.75;;;;;;;10.60;nan;99579.81;5016428;28;20447;-71
2023/10/28 04:23:55;;;;;;;5.30;4.03;;;;;;;10.64;nan;99577.50;5015515;28;20483;-71
2023/10/28 04:26:21;;;;;;;9.77;3.90;;;;;;;10.69;nan;99568.88;5017298;28;20498;-71
2023/10/28 04:28:46;;;;;;;6.50;3.45;;;;;;;10.62;nan;99558.50;5014537;28;20091;-71
2023/10/28 04:31:11;;;;;;;7.32;4.00;;;;;;;10.63;nan;99555.66;5017716;28;20030;-73
2023/10/28 04:33:37;;;;;;;7.63;3.90;;;;;;;10.56;nan;99547.13;5016889;28;20478;-73
2023/10/28 04:36:02;;;;;;;7.03;3.65;;;;;;;10.74;nan;99580.25;5022480;28;20049;-68
2023/10/28 04:38:29;;;;;;;8.00;3.47;;;;;;;10.67;nan;99571.72;5017574;28;20511;-66
2023/10/28 04:40:56;;;;;;;7.10;3.92;;;;;;;10.73;nan;99577.88;5016696;28;20087;-67
2023/10/28 04:43:22;;;;;;;5.85;3.53;;;;;;;10.67;nan;99569.09;5015291;28;20021;-68
2023/10/28 04:45:49;;;;;;;6.38;3.85;;;;;;;10.65;nan;99571.19;5018756;28;20075;-67
2023/10/28 04:48:15;;;;;;;6.63;4.05;;;;;;;10.56;nan;99562.13;5016136;28;20030;-67
2023/10/28 04:50:41;;;;;;;5.18;3.90;;;;;;;10.61;nan;99573.53;5016428;28;20030;-68
2023/10/28 04:53:07;;;;;;;6.15;4.10;;;;;;;10.55;nan;99569.22;5017115;28;20026;-68
2023/10/28 04:55:33;;;;;;;5.05;4.15;;;;;;;10.62;nan;99590.09;5016324;28;20033;-68
2023/10/28 04:57:58;;;;;;;5.93;3.50;;;;;;;10.57;nan;99593.47;5016615;28;20017;-67
2023/10/28 05:00:24;;;;;;;7.88;3.35;;;;;;;10.53;nan;99599.47;5013528;28;20468;-67
2023/10/28 05:02:50;;;;;;;4.95;3.13;;;;;;;10.42;nan;99594.06;5014693;28;20029;-67
2023/10/28 05:05:15;;;;;;;5.53;3.42;;;;;;;10.39;nan;99605.09;5018556;28;20025;-67
2023/10/28 05:07:42;;;;;;;6.15;3.20;;;;;;;10.29;nan;99596.25;5019950;28;20037;-68
2023/10/28 05:10:09;;;;;;;6.85;3.70;;;;;;;10.33;nan;99597.38;5014240;28;20065;-68
2023/10/28 05:12:35;;;;;;;6.38;3.55;;;;;;;10.28;nan;99595.47;5013029;28;20038;-71
2023/10/28 05:15:02;;;;;;;5.75;4.00;;;;;;;10.32;nan;99593.94;5018417;28;20053;-72
2023/10/28 05:17:27;;;;;;;5.57;3.90;;;;;;;10.12;nan;99568.09;5018284;28;20022;-72
2023/10/28 05:19:53;;;;;;;6.43;4.32;;;;;;;10.25;nan;99579.31;5016093;28;20034;-72
2023/10/28 05:22:18;;;;;;;6.82;4.20;;;;;;;10.22;nan;99564.81;5017132;28;20025;-72
2023/10/28 05:24:46;;;;;;;8.50;4.60;;;;;;;10.35;nan;99575.03;5017140;28;20612;-71
2023/10/28 05:27:12;;;;;;;7.35;3.83;;;;;;;10.30;nan;99572.34;5014838;28;20844;-72
2023/10/28 05:29:38;;;;;;;11.60;4.20;;;;;;;10.33;nan;99585.00;5016866;28;20064;-71
2023/10/28 05:32:03;;;;;;;8.85;3.88;;;;;;;10.23;nan;99564.59;5014397;28;20029;-72
2023/10/28 05:34:29;;;;;;;9.07;4.10;;;;;;;10.04;nan;99539.59;5015306;28;20029;-72
2023/10/28 05:36:54;;;;;;;9.25;4.53;;;;;;;10.33;nan;99589.47;5015907;28;20041;-72
2023/10/28 05:39:20;;;;;;;9.30;4.72;;;;;;;10.20;nan;99582.69;5022515;28;20030;-70
2023/10/28 05:41:47;;;;;;;8.68;5.28;;;;;;;10.16;nan;99581.59;5014212;28;20037;-70
2023/10/28 05:44:13;;;;;;;10.00;4.60;;;;;;;10.10;nan;99593.84;5016874;28;20045;-70
2023/10/28 05:46:38;;;;;;;10.77;5.30;;;;;;;10.13;nan;99603.91;5017410;28;20033;-71
2023/10/28 05:49:03;;;;;;;9.48;4.93;;;;;;;10.06;nan;99605.91;5013208;28;20041;-71
2023/10/28 05:51:29;;;;;;;8.10;4.97;;;;;;;10.00;nan;99607.66;5020259;28;20030;-69
2023/10/28 05:53:54;;;;;;;10.43;5.40;;;;;;;9.74;nan;99580.16;5013531;28;20119;-70
2023/10/28 05:56:20;;;;;;;11.55;5.22;;;;;;;9.97;nan;99617.88;5013894;28;20057;-70
2023/10/28 05:58:48;;;;;;;11.93;5.43;;;;;;;10.01;nan;99621.63;5013120;28;20053;-70
2023/10/28 06:01:13;;;;;;;14.15;5.47;;;;;;;10.12;nan;99638.34;5012589;28;20827;-71
2023/10/28 06:03:39;;;;;;;7.95;4.60;;;;;;;10.05;nan;99632.44;5016621;28;20112;-70
2023/10/28 06:06:05;;;;;;;7.20;4.55;;;;;;;9.95;nan;99626.00;5015386;28;20040;-70
2023/10/28 06:08:31;;;;;;;7.30;4.50;;;;;;;10.05;nan;99642.97;5021118;28;20033;-70
2023/10/28 06:10:56;;;;;;;8.48;4.70;;;;;;;10.09;nan;99647.50;5022545;28;20406;-70
2023/10/28 06:13:23;;;;;;;8.60;4.47;;;;;;;10.17;nan;99662.09;5015720;28;20025;-70
2023/10/28 06:15:48;;;;;;;9.98;4.20;;;;;;;10.20;nan;99659.00;5012260;28;20025;-70
2023/10/28 06:18:14;;;;;;;6.25;3.60;;;;;;;10.16;nan;99650.78;5014096;28;20026;-70
2023/10/28 06:20:39;;;;;;;4.70;3.58;;;;;;;10.09;nan;99657.25;5014035;28;20025;-70
2023/10/28 06:23:06;;;;;;;7.28;3.88;;;;;;;10.12;nan;99654.91;5017268;28;20510;-70
2023/10/28 06:25:34;;;;;;;6.00;4.05;;;;;;;10.15;nan;99653.63;5019971;28;20155;-71
2023/10/28 06:28:00;;;;;;;7.45;3.88;;;;;;;10.20;nan;99662.44;5016815;28;20495;-74
2023/10/28 06:30:26;;;;;;;7.32;3.38;;;;;;;10.18;nan;99661.06;5012561;28;20022;-74
2023/10/28 06:32:51;;;;;;;12.57;4.40;;;;;;;10.12;nan;99669.91;5013555;28;20519;-67
2023/10/28 06:35:17;;;;;;;6.55;3.97;;;;;;;10.13;nan;99661.00;5014749;28;20462;-68
2023/10/28 06:37:42;;;;;;;14.00;8.23;;;;;;;10.18;nan;99664.50;5021290;28;20124;-67
2023/10/28 06:40:10;;;;;;;9.95;5.18;;;;;;;;;;5014515;28;20104;-65
2023/10/28 06:42:37;;;;;;;4.78;3.55;;;;;;;;;;5013616;28;20527;-67
2023/10/28 06:45:02;;;;;;;4.68;3.40;;;;;;;;;;5014140;28;20087;-68
2023/10/28 06:47:29;;;;;;;6.10;3.58;;;;;;;10.74;nan;99719.81;5016433;28;20021;-67
2023/10/28 06:49:54;;;;;;;6.00;3.50;;;;;;;10.52;nan;99688.19;5016126;28;20416;-68
2023/10/28 06:52:22;;;;;;;5.45;3.42;;;;;;;10.57;nan;99690.09;5013127;28;20064;-68
2023/10/28 06:54:47;;;;;;;6.65;3.60;;;;;;;10.68;nan;99709.44;5013352;28;20040;-67
2023/10/28 06:57:13;;;;;;;5.90;3.25;;;;;;;10.68;nan;99701.53;5015578;28;20030;-68
2023/10/28 06:59:38;;;;;;;4.80;3.70;;;;;;;10.80;nan;99704.91;5012441;28;20033;-68
2023/10/28 07:02:04;;;;;;;8.80;4.40;;;;;;;10.92;nan;99716.13;5017039;28;20039;-68
2023/10/28 07:04:29;;;;;;;7.65;4.28;;;;;;;;;;5014581;28;20053;-67
2023/10/28 07:06:54;;;;;;;8.13;4.50;;;;;;;11.01;nan;99713.84;5019175;28;20033;-67
2023/10/28 07:09:20;;;;;;;9.27;4.70;;;;;;;11.13;nan;99729.53;5016034;28;20993;-67
2023/10/28 07:11:46;;;;;;;8.93;4.30;;;;;;;11.16;nan;99740.38;5012608;28;20545;-68
2023/10/28 07:14:12;;;;;;;8.23;4.00;;;;;;;11.35;nan;99769.88;5012814;28;20136;-68
2023/10/28 07:16:38;;;;;;;14.30;5.13;;;;;;;11.42;nan;99778.41;5013035;28;20034;-67
2023/10/28 07:19:03;;;;;;;13.68;5.22;;;;;;;11.50;nan;99783.22;5012183;28;20060;-68
2023/10/28 07:21:29;;;;;;;11.25;4.57;;;;;;;11.41;nan;99752.28;5012054;28;20076;-68
2023/10/28 07:23:54;;;;;;;9.15;4.55;;;;;;;11.59;nan;99753.78;5011877;28;20083;-68
2023/10/28 07:26:20;;;;;;;7.22;4.25;;;;;;;11.62;nan;99687.38;5011266;28;20021;-68
2023/10/28 07:28:46;;;;;;;5.00;3.80;;;;;;;11.68;nan;99631.81;5012118;28;20025;-68
2023/10/28 07:31:11;;;;;;;11.00;4.65;;;;;;;;;;5013073;28;20103;-67
2023/10/28 07:33:37;;;;;;;10.73;5.10;;;;;;;;;;5013867;28;20030;-67
2023/10/28 07:36:03;;;;;;;8.48;5.30;;;;;;;;;;5018222;28;20042;-69
2023/10/28 07:38:28;;;;;;;13.68;5.90;;;;;;;;;;5018132;28;20032;-68
2023/10/28 07:40:54;;;;;;;8.30;5.70;;;;;;;;;;5017506;28;20648;-67
2023/10/28 07:43:19;;;;;;;11.77;6.78;;;;;;;;;;5017034;28;20026;-68
2023/10/28 07:45:48;;;;;;;12.52;6.22;;;;;;;;;;5017132;28;20105;-68
2023/10/28 07:48:13;;;;;;;9.05;5.65;;;;;;;;;;5017118;28;20133;-69
2023/10/28 07:50:39;;;;;;;10.98;5.47;;;;;;;;;;5019367;28;20148;-67
2023/10/28 07:53:05;;;;;;;7.20;4.15;;;;;;;;;;5016214;28;20128;-67
2023/10/28 07:55:30;;;;;;;9.68;4.03;;;;;;;;;;5018011;28;20030;-68
2023/10/28 07:57:56;;;;;;;5.60;3.70;;;;;;;;;;5018095;28;20025;-67
2023/10/28 08:00:22;;;;;;;10.82;3.63;;;;;;;;;;5024328;28;20034;-67
2023/10/28 08:02:47;;;;;;;7.00;3.00;;;;;;;;;;5018093;28;20052;-68
2023/10/28 08:05:13;;;;;;;9.05;2.95;;;;;;;;;;5017841;28;20064;-67
2023/10/28 08:07:38;;;;;;;5.75;3.17;;;;;;;12.74;nan;99696.19;5016598;28;20096;-71
2023/10/28 08:10:05;;;;;;;7.88;3.38;;;;;;;12.77;nan;99690.38;5016489;28;20040;-70
2023/10/28 08:12:39;;;;;;;6.00;3.05;;;;;;;12.95;nan;99699.72;5018591;28;20037;-68
2023/10/28 08:15:07;;;;;;;4.70;2.75;;;;;;;12.99;nan;99684.91;5015894;28;20471;-71
2023/10/28 08:17:33;;;;;;;5.53;2.70;;;;;;;13.45;nan;99742.47;5014997;28;20021;-71
2023/10/28 08:19:59;;;;;;;6.25;2.70;;;;;;;13.22;nan;99687.38;5015736;28;20061;-72
2023/10/28 08:22:24;;;;;;;6.03;2.60;;;;;;;13.39;nan;99693.28;5015914;28;20096;-72
2023/10/28 08:24:53;;;;;;;3.53;2.45;;;;;;;13.46;nan;99687.75;5016933;28;20022;-72
2023/10/28 08:27:19;;;;;;;4.05;2.00;;;;;;;13.64;nan;99704.97;5017733;28;20452;-72
2023/10/28 08:29:46;;;;;;;4.43;2.13;;;;;;;13.75;nan;99715.31;5013798;28;20574;-73
2023/10/28 08:32:11;;;;;;;4.00;1.70;;;;;;;13.74;nan;99710.28;5015588;28;20487;-74
2023/10/28 08:34:38;;;;;;;3.63;1.77;;;;;;;13.78;nan;99728.03;5017842;28;20029;-74
2023/10/28 08:37:04;;;;;;;4.25;2.15;;;;;;;13.79;nan;99739.38;5013790;28;20045;-74
2023/10/28 08:39:29;;;;;;;7.30;1.85;;;;;;;13.89;nan;99749.22;5018500;28;20475;-74
2023/10/28 08:41:56;;;;;;;2.92;2.00;;;;;;;13.63;nan;99703.41;5022103;28;20033;-74
2023/10/28 08:44:27;;;;;;;3.65;2.00;;;;;;;14.12;nan;99764.59;5014410;28;20030;-75
2023/10/28 08:46:53;;;;;;;5.07;1.17;;;;;;;14.15;nan;99758.78;5017703;28;20029;-74
2023/10/28 08:49:21;;;;;;;2.47;1.33;;;;;;;14.16;nan;99746.34;5014105;28;20495;-74
2023/10/28 08:51:51;;;;;;;3.60;1.50;;;;;;;14.42;nan;99777.06;5014316;28;20033;-74
2023/10/28 08:54:18;;;;;;;3.13;1.90;;;;;;;14.49;nan;99771.50;5017538;28;20063;-74
2023/10/28 08:56:46;;;;;;;4.13;1.70;;;;;;;14.60;nan;99778.38;5018114;28;20040;-74
2023/10/28 08:59:12;;;;;;;3.45;1.90;;;;;;;14.80;nan;99801.44;5015321;28;20444;-74
2023/10/28 09:01:39;;;;;;;3.72;1.70;;;;;;;14.86;nan;99794.25;5023628;28;20065;-72
2023/10/28 09:04:05;;;;;;;3.70;2.53;;;;;;;14.93;nan;99794.00;5011615;28;20033;-74
2023/10/28 09:06:31;;;;;;;3.55;1.80;;;;;;;15.06;nan;99809.31;5022824;28;20018;-74
2023/10/28 09:08:59;;;;;;;2.65;1.60;;;;;;;15.16;nan;99813.84;5017332;28;20029;-73
2023/10/28 09:11:25;;;;;;;3.78;1.50;;;;;;;;;;5015168;28;20030;-74
2023/10/28 09:13:50;;;;;;;3.22;1.67;;;;;;;;;;5017187;28;20033;-74
2023/10/28 09:16:15;;;;;;;2.77;1.40;;;;;;;;;;5013741;28;20036;-74
2023/10/28 09:18:42;;;;;;;4.30;1.60;;;;;;;;;;5016899;28;20823;-73
2023/10/28 09:21:10;;;;;;;2.30;1.13;;;;;;;;;;5019710;28;20275;-72
2023/10/28 09:23:36;;;;;;;2.17;1.10;;;;;;;;;;5015145;28;20030;-71
2023/10/28 09:26:01;;;;;;;1.92;1.00;;;;;;;;;;5015746;28;20499;-71
2023/10/28 09:28:32;;;;;;;3.20;0.73;;;;;;;;;;5016087;28;20079;-68
2023/10/28 09:31:06;;;;;;;3.85;0.70;;;;;;;;;;5016480;28;20275;-70
2023/10/28 09:33:31;;;;;;;2.67;0.90;;;;;;;;;;5015273;28;20021;-70
2023/10/28 09:35:57;;;;;;;1.00;0.75;;;;;;;;;;5016091;28;20054;-70
2023/10/28 09:38:23;;;;;;;2.55;0.90;;;;;;;;;;5012153;28;20742;-70
2023/10/28 09:40:49;;;;;;;3.40;1.00;;;;;;;;;;5017160;28;20040;-71
2023/10/28 09:43:14;;;;;;;1.15;0.60;;;;;;;;;;5016320;28;20029;-74
2023/10/28 09:45:40;;;;;;;1.13;0.82;;;;;;;;;;5014569;28;20036;-74
2023/10/28 09:48:12;;;;;;;11.15;1.20;;;;;;;;;;5014790;28;20582;-75
2023/10/28 09:50:40;;;;;;;0.93;0.60;;;;;;;;;;5013769;28;20033;-73
2023/10/28 09:53:05;;;;;;;0.80;0.57;;;;;;;;;;5015348;28;20036;-73
2023/10/28 09:55:34;;;;;;;1.80;0.60;;;;;;;;;;5015792;28;20018;-74
2023/10/28 09:58:04;;;;;;;1.70;0.73;;;;;;;;;;5022969;28;20201;-74
2023/10/28 10:00:30;;;;;;;1.65;0.80;;;;;;;;;;5015625;28;20545;-72
2023/10/28 10:03:22;;;;;;;2.45;0.70;;;;;;;;;;5017049;28;20419;-73
2023/10/28 10:05:48;;;;;;;1.50;0.82;;;;;;;;;;5010899;28;20504;-73
2023/10/28 10:08:21;;;;;;;1.98;0.68;;;;;;;17.04;nan;99763.19;5015362;28;20064;-73
2023/10/28 10:10:48;;;;;;;1.30;0.68;;;;;;;;;;5012819;28;20025;-73
2023/10/28 10:13:15;;;;;;;0.60;0.55;;;;;;;;;;5013748;28;20502;-74
2023/10/28 10:15:44;;;;;;;1.15;0.70;;;;;;;;;;5020177;28;20030;-74
2023/10/28 10:18:10;;;;;;;2.00;0.60;;;;;;;;;;5015475;28;20060;-74
2023/10/28 10:20:36;;;;;;;1.48;0.70;;;;;;;;;;5016124;28;20783;-74
2023/10/28 10:23:02;;;;;;;2.40;0.65;;;;;;;;;;5015463;28;20030;-71
2023/10/28 10:25:39;;;;;;;1.67;0.60;;;;;;;;;;5014770;28;20079;-70
2023/10/28 10:28:19;;;;;;;3.92;0.65;;;;;;;;;;5021450;28;20045;-70
2023/10/28 10:30:44;;;;;;;0.65;0.50;;;;;;;;;;5013726;28;20627;-70
2023/10/28 10:33:09;;;;;;;1.23;0.50;;;;;;;;;;5011568;28;20129;-71
2023/10/28 10:35:36;;;;;;;0.93;0.60;;;;;;;;;;5015003;28;20052;-71
2023/10/28 10:38:04;;;;;;;3.45;1.25;;;;;;;;;;5012319;28;20029;-70
2023/10/28 10:40:31;;;;;;;1.00;0.50;;;;;;;;;;5016298;28;20018;-70
2023/10/28 10:42:57;;;;;;;1.20;0.98;;;;;;;;;;5018455;28;20026;-73
2023/10/28 10:45:24;;;;;;;1.58;0.50;;;;;;;18.23;nan;99748.00;5014304;28;20028;-74
2023/10/28 10:47:49;;;;;;;0.80;0.63;;;;;;;;;;5017134;28;20029;-73
2023/10/28 10:50:14;;;;;;;0.98;0.57;;;;;;;;;;5015350;28;20044;-73
2023/10/28 10:52:41;;;;;;;2.83;1.02;;;;;;;;;;5013236;28;20041;-74
2023/10/28 10:55:07;;;;;;;0.80;0.55;;;;;;;;;;5012178;28;20881;-70
2023/10/28 10:57:33;;;;;;;0.90;0.60;;;;;;;;;;5017527;28;20159;-71
2023/10/28 11:00:00;;;;;;;1.35;0.70;;;;;;;;;;5015734;28;20029;-70
2023/10/28 11:02:25;;;;;;;3.47;0.50;;;;;;;;;;5019841;28;20026;-74
2023/10/28 11:04:50;;;;;;;1.98;0.95;;;;;;;;;;5013309;28;20030;-74
2023/10/28 11:07:16;;;;;;;0.70;0.40;;;;;;;;;;5014306;28;20490;-73
2023/10/28 11:09:42;;;;;;;1.53;0.50;;;;;;;19.13;nan;99715.75;5015715;28;20480;-68
2023/10/28 11:12:07;;;;;;;1.35;0.50;;;;;;;;;;5017866;28;20334;-67
2023/10/28 11:14:32;;;;;;;1.23;0.47;;;;;;;19.19;nan;99761.78;5020737;28;20364;-74
2023/10/28 11:16:59;;;;;;;0.60;0.40;;;;;;;;;;5018813;28;20026;-75
2023/10/28 11:19:25;;;;;;;0.47;0.47;;;;;;;19.26;nan;99666.09;5016044;28;20100;-75
2023/10/28 11:21:50;;;;;;;1.20;0.40;;;;;;;;;;5016036;28;20061;-75
2023/10/28 11:24:17;;;;;;;2.15;0.50;;;;;;;19.32;nan;99752.97;5018415;28;20033;-75
2023/10/28 11:26:48;;;;;;;1.85;0.40;;;;;;;19.48;nan;99710.72;5022030;28;20557;-74
2023/10/28 11:29:16;;;;;;;0.85;0.52;;;;;;;19.54;nan;99709.53;5019558;28;20036;-75
2023/10/28 11:31:41;;;;;;;1.67;0.43;;;;;;;19.56;nan;99675.28;5014207;28;21305;-73
2023/10/28 11:34:08;;;;;;;3.63;0.40;;;;;;;19.69;nan;99681.72;5020243;28;20100;-75
2023/10/28 11:36:33;;;;;;;0.70;0.47;;;;;;;;;;5017511;28;20076;-75
2023/10/28 11:39:07;;;;;;;0.85;0.43;;;;;;;;;;5014254;28;20484;-75
2023/10/28 11:41:32;;;;;;;1.15;0.40;;;;;;;19.68;nan;99678.25;5023940;28;20018;-74
2023/10/28 11:43:59;;;;;;;1.50;0.38;;;;;;;19.85;nan;99714.19;5016803;28;20491;-75
2023/10/28 11:46:24;;;;;;;0.80;0.50;;;;;;;;;;5019129;28;20033;-73
2023/10/28 11:48:50;;;;;;;2.03;0.70;;;;;;;19.80;nan;99652.84;5018720;28;20396;-75
2023/10/28 11:51:16;;;;;;;3.80;0.90;;;;;;;19.81;nan;99673.94;5015628;28;20026;-74
2023/10/28 11:53:47;;;;;;;1.02;0.50;;;;;;;19.94;nan;99681.09;5014324;28;20032;-74
2023/10/28 11:56:15;;;;;;;0.73;0.40;;;;;;;19.94;nan;99760.47;5017531;28;20137;-74
2023/10/28 11:58:41;;;;;;;1.52;0.40;;;;;;;19.93;nan;99686.75;5023295;28;20024;-73
2023/10/28 12:01:07;;;;;;;0.47;0.40;;;;;;;;;;5014950;28;20186;-74
2023/10/28 12:03:33;;;;;;;0.60;0.40;;;;;;;20.19;nan;99698.38;5017351;28;20055;-74
2023/10/28 12:05:58;;;;;;;0.45;0.40;;;;;;;20.14;nan;99673.69;5013084;28;20573;-73
2023/10/28 12:08:23;;;;;;;1.25;0.40;;;;;;;20.27;nan;99682.69;5025028;28;20068;-73
2023/10/28 12:10:50;;;;;;;0.68;0.32;;;;;;;20.24;nan;99688.66;5015319;28;20034;-73
2023/10/28 12:13:18;;;;;;;2.58;1.10;;;;;;;20.34;nan;99745.31;5021770;28;20120;-73
2023/10/28 12:15:44;;;;;;;0.95;0.50;;;;;;;20.40;nan;99746.00;5016057;28;20029;-73
2023/10/28 12:18:09;;;;;;;0.70;0.30;;;;;;;20.26;nan;99727.38;5017771;28;20034;-72